createdAt,value
2018-01-19T00:00:53.339Z,1.13
2018-01-19T00:03:23.099Z,1.00
2018-01-19T00:05:51.297Z,1.10
2018-01-19T00:08:19.495Z,1.30
2018-01-19T00:10:47.545Z,1.30
2018-01-19T00:13:18.574Z,1.17
2018-01-19T00:15:46.583Z,1.43
2018-01-19T00:18:14.624Z,1.30
2018-01-19T00:20:42.631Z,1.10
2018-01-19T00:23:13.511Z,1.20
2018-01-19T00:25:41.445Z,1.30
2018-01-19T00:28:09.513Z,1.20
2018-01-19T00:30:39.125Z,1.50
2018-01-19T00:33:15.417Z,1.00
2018-01-19T00:35:43.345Z,0.90
2018-01-19T00:38:14.617Z,1.50
2018-01-19T00:40:42.681Z,1.10
2018-01-19T00:43:10.711Z,0.90
2018-01-19T00:45:38.541Z,1.40
2018-01-19T00:48:06.577Z,1.10
2018-01-19T00:50:36.471Z,1.40
2018-01-19T00:53:04.515Z,1.13
2018-01-19T00:55:32.663Z,1.00
2018-01-19T00:58:03.341Z,1.40
2018-01-19T01:00:31.377Z,1.00
2018-01-19T01:03:00.393Z,1.10
2018-01-19T01:05:28.363Z,1.13
2018-01-19T01:07:56.347Z,1.10
2018-01-19T01:10:24.909Z,1.30
2018-01-19T01:12:52.851Z,1.20
2018-01-19T01:15:20.752Z,1.20
2018-01-19T01:17:48.724Z,1.60
2018-01-19T01:20:16.792Z,1.20
2018-01-19T01:22:46.420Z,1.10
2018-01-19T01:25:14.400Z,1.30
2018-01-19T01:27:44.041Z,1.10
2018-01-19T01:30:12.064Z,1.00
2018-01-19T01:32:41.851Z,0.90
2018-01-19T01:35:16.889Z,1.00
2018-01-19T01:37:44.979Z,0.73
2018-01-19T01:40:13.721Z,0.90
2018-01-19T01:42:47.126Z,0.90
2018-01-19T01:45:15.140Z,1.20
2018-01-19T01:47:43.395Z,1.20
2018-01-19T01:50:11.603Z,0.90
2018-01-19T01:52:39.878Z,0.77
2018-01-19T01:55:08.057Z,1.03
2018-01-19T01:57:36.028Z,0.93
2018-01-19T02:00:04.737Z,1.10
2018-01-19T02:02:34.304Z,0.73
2018-01-19T02:05:02.290Z,0.80
2018-01-19T02:07:30.166Z,1.03
2018-01-19T02:09:58.143Z,0.80
2018-01-19T02:12:28.580Z,0.80
2018-01-19T02:14:59.162Z,0.80
2018-01-19T02:17:28.591Z,0.90
2018-01-19T02:19:57.200Z,0.73
2018-01-19T02:22:25.092Z,0.80
2018-01-19T02:24:53.058Z,1.13
2018-01-19T02:27:21.663Z,0.90
2018-01-19T02:29:51.347Z,0.80
2018-01-19T02:32:19.330Z,0.90
2018-01-19T02:34:47.286Z,0.80
2018-01-19T02:37:15.152Z,1.10
2018-01-19T02:39:44.564Z,1.10
2018-01-19T02:42:12.742Z,0.90
2018-01-19T02:44:40.710Z,0.70
2018-01-19T02:47:14.776Z,0.90
2018-01-19T02:49:48.773Z,0.70
2018-01-19T02:52:19.448Z,0.73
2018-01-19T02:54:47.501Z,1.00
2018-01-19T02:57:23.286Z,0.90
2018-01-19T02:59:51.138Z,0.87
2018-01-19T03:02:19.876Z,1.00
2018-01-19T03:04:47.884Z,0.90
2018-01-19T03:07:15.996Z,0.90
2018-01-19T03:09:46.961Z,1.00
2018-01-19T03:12:21.131Z,0.97
2018-01-19T03:14:49.022Z,0.93
2018-01-19T03:17:18.750Z,1.03
2018-01-19T03:19:46.836Z,0.80
2018-01-19T03:22:16.294Z,1.37
2018-01-19T03:24:44.325Z,1.00
2018-01-19T03:27:12.367Z,1.00
2018-01-19T03:29:41.862Z,1.40
2018-01-19T03:32:09.744Z,1.30
2018-01-19T03:34:37.818Z,1.10
2018-01-19T03:37:06.824Z,0.80
2018-01-19T03:39:35.700Z,1.10
2018-01-19T03:42:03.679Z,1.30
2018-01-19T03:44:31.752Z,1.13
2018-01-19T03:46:59.737Z,1.27
2018-01-19T03:49:27.706Z,1.20
2018-01-19T03:51:57.402Z,0.90
2018-01-19T03:54:25.384Z,0.93
2018-01-19T03:56:53.370Z,1.10
2018-01-19T03:59:21.332Z,1.00
2018-01-19T04:01:51.162Z,1.10
2018-01-19T04:04:19.144Z,0.80
2018-01-19T04:06:47.086Z,1.20
2018-01-19T04:09:15.164Z,0.80
2018-01-19T04:11:43.786Z,0.90
2018-01-19T04:14:13.364Z,0.90
2018-01-19T04:16:41.436Z,0.80
2018-01-19T04:19:11.018Z,1.00
2018-01-19T04:21:39.760Z,0.80
2018-01-19T04:24:07.706Z,0.87
2018-01-19T04:26:35.884Z,0.80
2018-01-19T04:29:06.402Z,1.10
2018-01-19T04:31:34.384Z,0.93
2018-01-19T04:34:04.235Z,1.00
2018-01-19T04:36:33.863Z,0.93
2018-01-19T04:39:01.990Z,1.00
2018-01-19T04:41:29.912Z,0.70
2018-01-19T04:43:57.904Z,0.70
2018-01-19T04:46:25.982Z,0.70
2018-01-19T04:48:54.718Z,0.63
2018-01-19T04:51:23.419Z,0.50
2018-01-19T04:53:54.324Z,0.70
2018-01-19T04:56:22.400Z,0.70
2018-01-19T04:58:50.216Z,0.63
2018-01-19T05:01:18.334Z,0.60
2018-01-19T05:03:46.330Z,0.73
2018-01-19T05:06:14.402Z,0.70
2018-01-19T05:08:42.476Z,0.60
2018-01-19T05:11:10.660Z,0.60
2018-01-19T05:13:38.622Z,0.60
2018-01-19T05:16:09.634Z,0.70
2018-01-19T05:18:37.674Z,0.60
2018-01-19T05:21:07.338Z,0.67
2018-01-19T05:23:35.282Z,0.60
2018-01-19T05:26:03.274Z,0.87
2018-01-19T05:28:32.916Z,0.70
2018-01-19T05:31:02.582Z,0.70
2018-01-19T05:33:30.688Z,0.60
2018-01-19T05:35:58.566Z,0.60
2018-01-19T05:38:27.378Z,0.70
2018-01-19T05:40:55.350Z,0.70
2018-01-19T05:43:23.292Z,0.60
2018-01-19T05:45:51.269Z,0.80
2018-01-19T05:48:19.251Z,0.70
2018-01-19T05:50:47.216Z,0.77
2018-01-19T05:53:15.402Z,0.80
2018-01-19T05:55:47.287Z,0.93
2018-01-19T05:58:16.894Z,0.90
2018-01-19T06:00:44.936Z,0.70
2018-01-19T06:03:13.515Z,0.70
2018-01-19T06:05:41.602Z,0.70
2018-01-19T06:08:11.230Z,0.80
2018-01-19T06:10:39.163Z,0.90
2018-01-19T06:15:39.735Z,0.90
2018-01-19T06:18:07.814Z,0.70
2018-01-19T06:20:35.684Z,1.10
2018-01-19T06:23:05.287Z,0.70
2018-01-19T06:25:33.988Z,0.90
2018-01-19T06:28:01.948Z,0.90
2018-01-19T06:30:30.028Z,1.00
2018-01-19T06:32:57.893Z,0.90
2018-01-19T06:35:29.345Z,1.00
2018-01-19T06:37:57.840Z,0.70
2018-01-19T06:40:27.423Z,0.83
2018-01-19T06:42:55.511Z,1.00
2018-01-19T06:45:24.793Z,0.90
2018-01-19T06:47:55.776Z,0.90
2018-01-19T06:50:24.858Z,0.80
2018-01-19T06:52:55.622Z,1.00
2018-01-19T06:55:28.212Z,0.80
2018-01-19T06:57:57.955Z,1.00
2018-01-19T07:00:25.981Z,0.90
2018-01-19T07:02:55.579Z,1.20
2018-01-19T07:05:23.564Z,0.90
2018-01-19T07:07:53.355Z,1.23
2018-01-19T07:10:21.431Z,0.73
2018-01-19T07:12:49.357Z,0.87
2018-01-19T07:15:17.279Z,1.10
2018-01-19T07:17:45.362Z,0.90
2018-01-19T07:20:15.211Z,1.10
2018-01-19T07:22:44.256Z,1.30
2018-01-19T07:25:13.671Z,1.00
2018-01-19T07:27:41.751Z,0.97
2018-01-19T07:30:09.606Z,1.70
2018-01-19T07:32:37.595Z,1.03
2018-01-19T07:35:05.672Z,2.07
2018-01-19T07:37:33.737Z,1.30
2018-01-19T07:40:03.469Z,0.90
2018-01-19T07:42:32.252Z,0.90
2018-01-19T07:45:00.311Z,0.70
2018-01-19T07:47:28.198Z,0.77
2018-01-19T07:49:56.253Z,0.90
2018-01-19T07:52:28.917Z,0.80
2018-01-19T07:54:57.107Z,0.70
2018-01-19T07:57:26.771Z,0.90
2018-01-19T07:59:54.999Z,0.80
2018-01-19T08:02:23.080Z,0.80
2018-01-19T08:04:52.771Z,0.70
2018-01-19T08:07:20.961Z,0.90
2018-01-19T08:09:50.568Z,1.00
2018-01-19T08:12:18.769Z,0.90
2018-01-19T08:14:51.243Z,0.70
2018-01-19T08:17:19.423Z,0.70
2018-01-19T08:19:47.281Z,0.80
2018-01-19T08:22:15.363Z,0.77
2018-01-19T08:24:43.425Z,0.90
2018-01-19T08:27:13.009Z,0.73
2018-01-19T08:29:42.031Z,0.70
2018-01-19T08:32:10.104Z,0.80
2018-01-19T08:34:38.075Z,0.90
2018-01-19T08:37:06.251Z,0.80
2018-01-19T08:39:35.869Z,1.07
2018-01-19T08:42:06.808Z,1.00
2018-01-19T08:44:37.579Z,0.80
2018-01-19T08:47:06.465Z,1.00
2018-01-19T08:49:34.515Z,1.10
2018-01-19T08:52:02.497Z,1.00
2018-01-19T08:54:30.674Z,0.80
2018-01-19T08:57:00.891Z,1.10
2018-01-19T08:59:29.590Z,1.00
2018-01-19T09:01:57.443Z,0.90
2018-01-19T09:04:25.423Z,0.90
2018-01-19T09:06:53.273Z,1.20
2018-01-19T09:09:21.259Z,1.23
2018-01-19T09:11:49.232Z,1.20
2018-01-19T09:14:17.980Z,0.90
2018-01-19T09:16:47.784Z,1.10
2018-01-19T09:19:15.782Z,1.10
2018-01-19T09:21:43.980Z,1.13
2018-01-19T09:24:12.336Z,1.40
2018-01-19T09:26:42.835Z,1.20
2018-01-19T09:29:11.073Z,1.47
2018-01-19T09:31:40.276Z,1.10
2018-01-19T09:34:23.193Z,1.20
2018-01-19T09:36:51.164Z,1.40
2018-01-19T09:39:19.887Z,1.00
2018-01-19T09:41:47.794Z,1.60
2018-01-19T09:44:15.860Z,1.10
2018-01-19T09:46:43.982Z,1.40
2018-01-19T09:49:13.684Z,1.27
2018-01-19T09:51:41.822Z,1.17
2018-01-19T09:54:09.779Z,1.17
2018-01-19T09:56:39.491Z,1.20
2018-01-19T09:59:07.963Z,1.37
2018-01-19T10:01:36.014Z,1.30
2018-01-19T10:04:03.992Z,1.23
2018-01-19T10:06:32.027Z,1.20
2018-01-19T10:08:59.933Z,0.80
2018-01-19T10:11:28.004Z,0.90
2018-01-19T10:13:56.616Z,0.97
2018-01-19T10:16:24.568Z,1.10
2018-01-19T10:18:52.632Z,1.07
2018-01-19T10:21:24.284Z,1.37
2018-01-19T10:23:52.260Z,1.10
2018-01-19T10:26:20.144Z,1.00
2018-01-19T10:28:51.894Z,1.07
2018-01-19T10:31:19.772Z,1.00
2018-01-19T10:33:49.381Z,1.00
2018-01-19T10:36:17.448Z,1.43
2018-01-19T10:38:45.518Z,1.20
2018-01-19T10:41:15.835Z,1.17
2018-01-19T10:43:43.871Z,1.20
2018-01-19T10:46:14.779Z,1.00
2018-01-19T10:48:42.840Z,1.00
2018-01-19T10:51:10.808Z,1.27
2018-01-19T10:53:38.789Z,1.20
2018-01-19T10:56:06.964Z,1.10
2018-01-19T10:58:35.663Z,1.10
2018-01-19T11:01:03.724Z,1.53
2018-01-19T11:03:31.697Z,1.17
2018-01-19T11:06:00.375Z,0.90
2018-01-19T11:08:29.096Z,1.20
2018-01-19T11:10:58.080Z,0.90
2018-01-19T11:13:26.064Z,0.90
2018-01-19T11:15:54.220Z,1.03
2018-01-19T11:18:26.865Z,1.10
2018-01-19T11:20:55.518Z,1.10
2018-01-19T11:23:23.496Z,1.10
2018-01-19T11:25:51.536Z,0.97
2018-01-19T11:28:19.606Z,0.93
2018-01-19T11:30:47.787Z,1.00
2018-01-19T11:33:15.879Z,0.87
2018-01-19T11:35:45.730Z,1.10
2018-01-19T11:38:15.378Z,1.00
2018-01-19T11:40:43.462Z,0.80
2018-01-19T11:43:11.513Z,1.00
2018-01-19T11:45:39.521Z,1.30
2018-01-19T11:48:07.560Z,1.00
2018-01-19T11:50:38.074Z,0.97
2018-01-19T11:53:09.989Z,0.93
2018-01-19T11:55:39.790Z,1.23
2018-01-19T11:58:08.512Z,1.00
2018-01-19T12:00:36.368Z,1.40
2018-01-19T12:03:04.433Z,1.37
2018-01-19T12:05:32.487Z,1.00
2018-01-19T12:08:01.242Z,1.47
2018-01-19T12:10:32.207Z,1.20
2018-01-19T12:13:00.312Z,1.60
2018-01-19T12:15:28.388Z,1.10
2018-01-19T12:17:58.332Z,1.30
2018-01-19T12:20:27.535Z,1.20
2018-01-19T12:22:55.586Z,1.00
2018-01-19T12:25:23.706Z,1.20
2018-01-19T12:27:53.356Z,1.30
2018-01-19T12:30:21.397Z,1.20
2018-01-19T12:32:49.489Z,1.10
2018-01-19T12:35:19.034Z,1.63
2018-01-19T12:37:48.145Z,0.90
2018-01-19T12:40:26.132Z,1.20
2018-01-19T12:42:56.867Z,0.97
2018-01-19T12:45:24.940Z,1.03
2018-01-19T12:47:53.014Z,2.13
2018-01-19T12:50:20.918Z,1.50
2018-01-19T12:52:55.093Z,1.50
2018-01-19T12:55:23.567Z,1.20
2018-01-19T12:57:52.771Z,1.33
2018-01-19T13:00:20.778Z,1.80
2018-01-19T13:02:48.736Z,0.90
2018-01-19T13:05:16.678Z,1.30
2018-01-19T13:07:49.360Z,1.33
2018-01-19T13:10:20.954Z,1.00
2018-01-19T13:12:48.924Z,1.50
2018-01-19T13:15:16.799Z,1.23
2018-01-19T13:17:48.130Z,1.10
2018-01-19T13:20:22.253Z,2.10
2018-01-19T13:22:51.360Z,1.50
2018-01-19T13:25:22.126Z,1.27
2018-01-19T13:27:50.154Z,1.20
2018-01-19T13:30:21.096Z,0.90
2018-01-19T13:32:48.964Z,1.70
2018-01-19T13:35:22.979Z,1.47
2018-01-19T13:37:51.052Z,1.30
2018-01-19T13:40:22.058Z,1.10
2018-01-19T13:42:50.069Z,1.47
2018-01-19T13:45:20.592Z,1.30
2018-01-19T13:47:48.582Z,1.47
2018-01-19T13:50:16.565Z,1.87
2018-01-19T13:52:47.599Z,1.40
2018-01-19T13:55:15.642Z,1.23
2018-01-19T13:57:45.363Z,1.97
2018-01-19T14:00:13.392Z,1.60
2018-01-19T14:02:41.235Z,2.20
2018-01-19T14:05:12.244Z,2.27
2018-01-19T14:07:40.237Z,2.60
2018-01-19T14:10:08.212Z,1.97
2018-01-19T14:12:40.896Z,2.70
2018-01-19T14:15:08.966Z,1.23
2018-01-19T14:17:42.169Z,1.47
2018-01-19T14:20:11.848Z,1.60
2018-01-19T14:22:42.402Z,1.20
2018-01-19T14:25:16.315Z,1.60
2018-01-19T14:27:44.464Z,1.40
2018-01-19T14:30:13.952Z,1.30
2018-01-19T14:32:41.968Z,1.20
2018-01-19T14:35:10.051Z,1.07
2018-01-19T14:37:39.841Z,1.40
2018-01-19T14:40:13.770Z,1.53
2018-01-19T14:42:41.746Z,2.80
2018-01-19T14:45:09.713Z,1.30
2018-01-19T14:47:40.373Z,1.50
2018-01-19T14:50:12.550Z,1.60
2018-01-19T14:52:40.585Z,2.30
2018-01-19T14:55:14.701Z,2.03
2018-01-19T14:57:42.780Z,1.50
2018-01-19T15:00:11.235Z,1.10
2018-01-19T15:02:40.257Z,1.30
2018-01-19T15:05:10.983Z,1.30
2018-01-19T15:07:39.069Z,1.17
2018-01-19T15:10:10.173Z,1.40
2018-01-19T15:12:40.086Z,1.40
2018-01-19T15:15:08.134Z,1.67
2018-01-19T15:17:36.037Z,1.43
2018-01-19T15:20:04.057Z,1.20
2018-01-19T15:22:32.091Z,1.00
2018-01-19T15:25:00.228Z,2.00
2018-01-19T15:27:28.376Z,1.17
2018-01-19T15:29:56.349Z,1.27
2018-01-19T15:32:26.155Z,1.13
2018-01-19T15:34:54.314Z,1.27
2018-01-19T15:37:26.506Z,1.30
2018-01-19T15:39:54.696Z,1.10
2018-01-19T15:42:23.678Z,1.40
2018-01-19T15:44:51.667Z,1.50
2018-01-19T15:47:21.483Z,1.20
2018-01-19T15:49:51.168Z,1.20
2018-01-19T15:52:23.940Z,1.10
2018-01-19T15:54:53.719Z,1.77
2018-01-19T15:57:23.694Z,1.50
2018-01-19T15:59:51.771Z,1.70
2018-01-19T16:02:19.751Z,2.27
2018-01-19T16:04:49.351Z,2.37
2018-01-19T16:07:18.976Z,3.30
2018-01-19T16:09:48.710Z,3.97
2018-01-19T16:12:17.657Z,2.83
2018-01-19T16:14:48.243Z,3.20
2018-01-19T16:17:16.386Z,2.90
2018-01-19T16:19:44.461Z,2.90
2018-01-19T16:22:13.561Z,2.37
2018-01-19T16:24:43.175Z,1.90
2018-01-19T16:27:11.832Z,1.67
2018-01-19T16:29:40.413Z,1.47
2018-01-19T16:32:08.237Z,1.90
2018-01-19T16:34:35.986Z,2.40
2018-01-19T16:37:04.640Z,3.23
2018-01-19T16:39:33.238Z,2.63
2018-01-19T16:42:01.222Z,3.10
2018-01-19T16:44:29.919Z,2.33
2018-01-19T16:46:59.355Z,2.40
2018-01-19T16:49:27.991Z,3.33
2018-01-19T16:51:57.770Z,2.87
2018-01-19T16:54:25.636Z,2.87
2018-01-19T16:56:53.663Z,2.43
2018-01-19T16:59:21.857Z,2.30
2018-01-19T17:01:50.865Z,2.50
2018-01-19T17:04:21.618Z,2.90
2018-01-19T17:06:49.644Z,2.67
2018-01-19T17:09:17.820Z,2.40
2018-01-19T17:11:45.804Z,2.40
2018-01-19T17:14:15.237Z,2.13
2018-01-19T17:16:43.241Z,2.53
2018-01-19T17:19:11.351Z,2.70
2018-01-19T17:21:40.965Z,2.60
2018-01-19T17:24:09.981Z,3.20
2018-01-19T17:26:38.160Z,2.90
2018-01-19T17:29:06.208Z,2.40
2018-01-19T17:31:35.790Z,2.70
2018-01-19T17:34:03.899Z,2.70
2018-01-19T17:36:32.872Z,2.17
2018-01-19T17:39:00.769Z,2.70
2018-01-19T17:41:30.374Z,2.10
2018-01-19T17:44:02.206Z,2.43
2018-01-19T17:46:30.376Z,2.10
2018-01-19T17:48:58.729Z,2.40
2018-01-19T17:51:28.778Z,2.70
2018-01-19T17:53:57.010Z,2.70
2018-01-19T17:56:25.059Z,2.40
2018-01-19T17:58:53.135Z,2.85
2018-01-19T18:01:21.220Z,3.73
2018-01-19T18:03:49.277Z,4.10
2018-01-19T18:06:17.200Z,3.73
2018-01-19T18:08:45.432Z,3.80
2018-01-19T18:11:14.644Z,4.00
2018-01-19T18:13:43.678Z,4.00
2018-01-19T18:16:13.552Z,4.10
2018-01-19T18:18:41.620Z,4.03
2018-01-19T18:21:10.420Z,3.37
2018-01-19T18:23:39.196Z,3.27
2018-01-19T18:26:11.786Z,2.90
2018-01-19T18:28:39.968Z,3.00
2018-01-19T18:31:09.771Z,3.27
2018-01-19T18:33:38.571Z,3.17
2018-01-19T18:36:09.421Z,3.50
2018-01-19T18:38:37.578Z,3.67
2018-01-19T18:41:05.651Z,2.80
2018-01-19T18:43:35.477Z,2.40
2018-01-19T18:46:03.549Z,2.63
2018-01-19T18:48:33.282Z,2.60
2018-01-19T18:51:01.330Z,2.67
2018-01-19T18:53:29.516Z,2.60
2018-01-19T18:55:59.830Z,3.50
2018-01-19T18:58:28.051Z,4.00
2018-01-19T19:00:56.395Z,3.60
2018-01-19T19:03:24.378Z,2.90
2018-01-19T19:05:52.374Z,2.30
2018-01-19T19:08:22.536Z,2.60
2018-01-19T19:10:54.648Z,2.40
2018-01-19T19:13:22.917Z,3.00
2018-01-19T19:15:51.000Z,3.10
2018-01-19T19:18:19.201Z,3.10
2018-01-19T19:20:48.670Z,2.77
2018-01-19T19:23:25.355Z,3.40
2018-01-19T19:25:53.616Z,2.73
2018-01-19T19:28:22.926Z,2.43
2018-01-19T19:30:51.099Z,2.90
2018-01-19T19:33:26.649Z,2.63
2018-01-19T19:35:54.857Z,2.10
2018-01-19T19:38:23.133Z,2.60
2018-01-19T19:40:53.503Z,2.60
2018-01-19T19:43:22.562Z,2.77
2018-01-19T19:45:51.524Z,2.53
2018-01-19T19:48:22.771Z,3.60
2018-01-19T19:50:51.352Z,2.90
2018-01-19T19:53:21.555Z,3.27
2018-01-19T19:55:50.033Z,4.10
2018-01-19T19:58:19.263Z,3.80
2018-01-19T20:00:47.467Z,3.23
2018-01-19T20:03:17.337Z,4.60
2018-01-19T20:05:46.369Z,5.13
2018-01-19T20:08:15.583Z,4.90
2018-01-19T20:10:46.830Z,5.50
2018-01-19T20:13:15.336Z,5.27
2018-01-19T20:15:43.972Z,5.50
2018-01-19T20:18:13.249Z,5.97
2018-01-19T20:20:43.515Z,6.07
2018-01-19T20:23:12.534Z,5.83
2018-01-19T20:25:40.957Z,6.03
2018-01-19T20:28:15.624Z,5.30
2018-01-19T20:30:45.904Z,5.10
2018-01-19T20:33:15.025Z,5.70
2018-01-19T20:35:44.261Z,5.93
2018-01-19T20:38:12.756Z,5.53
2018-01-19T20:40:44.260Z,6.37
2018-01-19T20:43:13.433Z,5.57
2018-01-19T20:45:42.481Z,6.03
2018-01-19T20:48:11.585Z,5.87
2018-01-19T20:50:39.750Z,5.73
2018-01-19T20:53:08.076Z,4.67
2018-01-19T20:55:36.408Z,4.97
2018-01-19T20:58:04.783Z,4.10
2018-01-19T21:00:34.795Z,3.80
2018-01-19T21:03:04.746Z,3.90
2018-01-19T21:05:35.918Z,3.40
2018-01-19T21:08:05.176Z,3.57
2018-01-19T21:10:33.461Z,3.40
2018-01-19T21:13:02.638Z,3.00
2018-01-19T21:15:33.497Z,3.33
2018-01-19T21:18:01.657Z,2.57
2018-01-19T21:20:31.608Z,2.80
2018-01-19T21:22:59.963Z,2.70
2018-01-19T21:25:28.450Z,3.10
2018-01-19T21:27:56.670Z,2.60
2018-01-19T21:30:24.917Z,3.13
2018-01-19T21:32:53.182Z,2.80
2018-01-19T21:35:21.256Z,3.50
2018-01-19T21:37:50.146Z,3.13
2018-01-19T21:40:25.393Z,2.63
2018-01-19T21:42:55.224Z,3.23
2018-01-19T21:45:23.595Z,2.63
2018-01-19T21:47:57.111Z,2.80
2018-01-19T21:50:28.701Z,3.00
2018-01-19T21:52:57.090Z,3.00
2018-01-19T21:55:25.967Z,2.70
2018-01-19T21:57:56.485Z,3.03
2018-01-19T22:00:26.190Z,2.53
2018-01-19T22:02:54.444Z,2.77
2018-01-19T22:05:41.447Z,3.30
2018-01-19T22:08:12.263Z,3.30
2018-01-19T22:10:40.373Z,2.60
2018-01-19T22:13:08.442Z,3.20
2018-01-19T22:15:36.583Z,3.20
2018-01-19T22:18:04.684Z,3.30
2018-01-19T22:20:32.558Z,3.47
2018-01-19T22:23:01.950Z,3.60
2018-01-19T22:25:30.038Z,3.60
2018-01-19T22:27:58.136Z,3.70
2018-01-19T22:30:26.082Z,3.33
2018-01-19T22:32:54.170Z,3.50
2018-01-19T22:35:22.247Z,2.90
2018-01-19T22:37:50.320Z,3.80
2018-01-19T22:40:19.015Z,2.53
2018-01-19T22:42:47.078Z,3.20
2018-01-19T22:45:15.290Z,2.63
2018-01-19T22:47:46.190Z,2.90
2018-01-19T22:50:16.109Z,2.70
2018-01-19T22:52:43.985Z,2.30
2018-01-19T22:55:12.256Z,2.40
2018-01-19T22:57:40.128Z,2.47
2018-01-19T23:00:08.115Z,1.87
2018-01-19T23:02:36.174Z,2.20
2018-01-19T23:05:09.978Z,2.10
2018-01-19T23:07:38.246Z,2.40
2018-01-19T23:10:09.926Z,2.23
2018-01-19T23:12:39.680Z,2.00
2018-01-19T23:15:07.698Z,2.30
2018-01-19T23:17:35.777Z,2.50
2018-01-19T23:20:07.636Z,2.27
2018-01-19T23:22:35.622Z,2.40
2018-01-19T23:25:03.697Z,2.70
2018-01-19T23:27:31.682Z,2.50
2018-01-19T23:30:06.698Z,2.60
2018-01-19T23:32:34.804Z,2.53
2018-01-19T23:35:04.593Z,2.53
2018-01-19T23:37:32.670Z,2.60
2018-01-19T23:40:00.635Z,2.57
2018-01-19T23:42:28.706Z,2.57
2018-01-19T23:44:59.443Z,2.33
2018-01-19T23:47:29.047Z,1.90
2018-01-19T23:49:58.722Z,1.77
2018-01-19T23:52:26.742Z,2.00
2018-01-19T23:54:54.764Z,1.67
2018-01-19T23:57:24.526Z,1.67
2018-01-19T23:59:52.628Z,1.60
